sensor_id;sensor_type;location;lat;lon;timestamp;temperature;humidity
3792;DHT22;1911;53.768;11.474;2023-03-23T00:01:37;9.40;99.90
3792;DHT22;1911;53.768;11.474;2023-03-23T00:04:12;9.40;99.90
3792;DHT22;1911;53.768;11.474;2023-03-23T00:06:48;9.40;99.90
3792;DHT22;1911;53.768;11.474;2023-03-23T00:09:15;9.30;99.90
3792;DHT22;1911;53.768;11.474;2023-03-23T00:11:43;9.20;99.90
3792;DHT22;1911;53.768;11.474;2023-03-23T00:14:09;9.00;99.90
3792;DHT22;1911;53.768;11.474;2023-03-23T00:16:42;8.90;99.90
3792;DHT22;1911;53.768;11.474;2023-03-23T00:19:12;8.80;99.90
3792;DHT22;1911;53.768;11.474;2023-03-23T00:21:41;8.70;99.90
3792;DHT22;1911;53.768;11.474;2023-03-23T00:24:15;8.60;99.90
3792;DHT22;1911;53.768;11.474;2023-03-23T00:26:45;8.50;99.90
3792;DHT22;1911;53.768;11.474;2023-03-23T00:29:20;8.50;99.90
3792;DHT22;1911;53.768;11.474;2023-03-23T00:31:50;8.60;99.90
3792;DHT22;1911;53.768;11.474;2023-03-23T00:34:20;8.70;99.90
3792;DHT22;1911;53.768;11.474;2023-03-23T00:36:48;8.70;99.90
3792;DHT22;1911;53.768;11.474;2023-03-23T00:39:14;8.60;99.90
3792;DHT22;1911;53.768;11.474;2023-03-23T00:41:42;8.70;99.90
3792;DHT22;1911;53.768;11.474;2023-03-23T00:44:08;8.80;99.90
3792;DHT22;1911;53.768;11.474;2023-03-23T00:46:34;8.80;99.90
3792;DHT22;1911;53.768;11.474;2023-03-23T00:48:59;8.80;99.90
3792;DHT22;1911;53.768;11.474;2023-03-23T00:51:25;8.70;99.90
3792;DHT22;1911;53.768;11.474;2023-03-23T00:53:51;8.70;99.90
3792;DHT22;1911;53.768;11.474;2023-03-23T00:56:16;8.60;99.90
3792;DHT22;1911;53.768;11.474;2023-03-23T00:58:42;8.50;99.90
3792;DHT22;1911;53.768;11.474;2023-03-23T01:01:08;8.40;99.90
3792;DHT22;1911;53.768;11.474;2023-03-23T01:03:35;8.40;99.90
3792;DHT22;1911;53.768;11.474;2023-03-23T01:06:06;8.50;99.90
3792;DHT22;1911;53.768;11.474;2023-03-23T01:08:33;8.70;99.90
3792;DHT22;1911;53.768;11.474;2023-03-23T01:11:05;8.70;99.90
3792;DHT22;1911;53.768;11.474;2023-03-23T01:13:32;8.80;99.90
3792;DHT22;1911;53.768;11.474;2023-03-23T01:15:58;8.90;99.90
3792;DHT22;1911;53.768;11.474;2023-03-23T01:18:23;8.80;99.90
3792;DHT22;1911;53.768;11.474;2023-03-23T01:20:49;8.90;99.90
3792;DHT22;1911;53.768;11.474;2023-03-23T01:23:15;8.90;99.90
3792;DHT22;1911;53.768;11.474;2023-03-23T01:25:40;8.90;99.90
3792;DHT22;1911;53.768;11.474;2023-03-23T01:28:06;8.80;99.90
3792;DHT22;1911;53.768;11.474;2023-03-23T01:30:32;8.70;99.90
3792;DHT22;1911;53.768;11.474;2023-03-23T01:32:57;8.60;99.90
3792;DHT22;1911;53.768;11.474;2023-03-23T01:35:23;8.40;99.90
3792;DHT22;1911;53.768;11.474;2023-03-23T01:37:48;8.50;99.90
3792;DHT22;1911;53.768;11.474;2023-03-23T01:40:15;8.60;99.90
3792;DHT22;1911;53.768;11.474;2023-03-23T01:42:41;8.70;99.90
3792;DHT22;1911;53.768;11.474;2023-03-23T01:45:20;8.60;99.90
3792;DHT22;1911;53.768;11.474;2023-03-23T01:47:49;8.60;99.90
3792;DHT22;1911;53.768;11.474;2023-03-23T01:50:18;8.70;99.90
3792;DHT22;1911;53.768;11.474;2023-03-23T01:52:44;8.80;99.90
3792;DHT22;1911;53.768;11.474;2023-03-23T01:55:10;8.80;99.90
3792;DHT22;1911;53.768;11.474;2023-03-23T01:57:36;8.80;99.90
3792;DHT22;1911;53.768;11.474;2023-03-23T02:00:06;8.80;99.90
3792;DHT22;1911;53.768;11.474;2023-03-23T02:02:36;8.80;99.90
3792;DHT22;1911;53.768;11.474;2023-03-23T02:05:11;8.90;99.90
3792;DHT22;1911;53.768;11.474;2023-03-23T02:07:40;8.90;99.90
3792;DHT22;1911;53.768;11.474;2023-03-23T02:10:06;9.00;99.90
3792;DHT22;1911;53.768;11.474;2023-03-23T02:35:14;8.90;99.90
3792;DHT22;1911;53.768;11.474;2023-03-23T02:38:21;8.90;99.90
3792;DHT22;1911;53.768;11.474;2023-03-23T02:40:44;8.90;99.90
3792;DHT22;1911;53.768;11.474;2023-03-23T02:43:14;8.90;99.90
3792;DHT22;1911;53.768;11.474;2023-03-23T02:45:41;8.90;99.90
3792;DHT22;1911;53.768;11.474;2023-03-23T02:48:09;8.80;99.90
3792;DHT22;1911;53.768;11.474;2023-03-23T02:50:37;8.80;99.90
3792;DHT22;1911;53.768;11.474;2023-03-23T02:53:07;8.90;99.90
3792;DHT22;1911;53.768;11.474;2023-03-23T02:55:34;8.90;99.90
3792;DHT22;1911;53.768;11.474;2023-03-23T02:58:01;8.90;99.90
3792;DHT22;1911;53.768;11.474;2023-03-23T03:00:27;8.90;99.90
3792;DHT22;1911;53.768;11.474;2023-03-23T03:02:54;8.80;99.90
3792;DHT22;1911;53.768;11.474;2023-03-23T03:08:10;8.90;99.90
3792;DHT22;1911;53.768;11.474;2023-03-23T03:10:56;8.90;99.90
3792;DHT22;1911;53.768;11.474;2023-03-23T03:16:01;8.90;99.90
3792;DHT22;1911;53.768;11.474;2023-03-23T03:21:21;8.90;99.90
3792;DHT22;1911;53.768;11.474;2023-03-23T03:23:54;8.80;99.90
3792;DHT22;1911;53.768;11.474;2023-03-23T03:26:21;8.80;99.90
3792;DHT22;1911;53.768;11.474;2023-03-23T03:28:52;8.80;99.90
3792;DHT22;1911;53.768;11.474;2023-03-23T03:31:20;8.80;99.90
3792;DHT22;1911;53.768;11.474;2023-03-23T03:33:47;8.90;99.90
3792;DHT22;1911;53.768;11.474;2023-03-23T03:36:22;9.00;99.90
3792;DHT22;1911;53.768;11.474;2023-03-23T03:38:50;9.10;99.90
3792;DHT22;1911;53.768;11.474;2023-03-23T03:41:18;9.00;99.90
3792;DHT22;1911;53.768;11.474;2023-03-23T03:43:44;9.00;99.90
3792;DHT22;1911;53.768;11.474;2023-03-23T03:46:10;9.00;99.90
3792;DHT22;1911;53.768;11.474;2023-03-23T03:48:36;9.00;99.90
3792;DHT22;1911;53.768;11.474;2023-03-23T03:51:01;9.00;99.90
3792;DHT22;1911;53.768;11.474;2023-03-23T03:53:28;9.10;99.90
3792;DHT22;1911;53.768;11.474;2023-03-23T03:55:54;9.00;99.90
3792;DHT22;1911;53.768;11.474;2023-03-23T03:58:26;8.80;99.90
3792;DHT22;1911;53.768;11.474;2023-03-23T04:00:58;8.80;99.90
3792;DHT22;1911;53.768;11.474;2023-03-23T04:03:24;8.90;99.90
3792;DHT22;1911;53.768;11.474;2023-03-23T04:05:51;9.00;99.90
3792;DHT22;1911;53.768;11.474;2023-03-23T04:08:16;9.00;99.90
3792;DHT22;1911;53.768;11.474;2023-03-23T04:10:43;9.10;99.90
3792;DHT22;1911;53.768;11.474;2023-03-23T04:13:08;9.00;99.90
3792;DHT22;1911;53.768;11.474;2023-03-23T04:15:34;9.10;99.90
3792;DHT22;1911;53.768;11.474;2023-03-23T04:18:00;9.10;99.90
3792;DHT22;1911;53.768;11.474;2023-03-23T04:20:26;9.20;99.90
3792;DHT22;1911;53.768;11.474;2023-03-23T04:22:52;9.20;99.90
3792;DHT22;1911;53.768;11.474;2023-03-23T04:25:20;9.10;99.90
3792;DHT22;1911;53.768;11.474;2023-03-23T04:27:47;9.20;99.90
3792;DHT22;1911;53.768;11.474;2023-03-23T04:30:18;9.20;99.90
3792;DHT22;1911;53.768;11.474;2023-03-23T04:32:45;9.20;99.90
3792;DHT22;1911;53.768;11.474;2023-03-23T04:35:13;9.20;99.90
3792;DHT22;1911;53.768;11.474;2023-03-23T04:37:39;9.20;99.90
3792;DHT22;1911;53.768;11.474;2023-03-23T04:40:07;9.10;99.90
3792;DHT22;1911;53.768;11.474;2023-03-23T04:42:36;9.20;99.90
3792;DHT22;1911;53.768;11.474;2023-03-23T04:45:04;9.20;99.90
3792;DHT22;1911;53.768;11.474;2023-03-23T04:47:33;9.10;99.90
3792;DHT22;1911;53.768;11.474;2023-03-23T04:50:05;9.20;99.90
3792;DHT22;1911;53.768;11.474;2023-03-23T04:52:32;9.20;99.90
3792;DHT22;1911;53.768;11.474;2023-03-23T04:54:57;9.20;99.90
3792;DHT22;1911;53.768;11.474;2023-03-23T04:57:24;9.20;99.90
3792;DHT22;1911;53.768;11.474;2023-03-23T04:59:52;9.30;99.90
3792;DHT22;1911;53.768;11.474;2023-03-23T05:02:18;9.20;99.90
3792;DHT22;1911;53.768;11.474;2023-03-23T05:04:44;9.20;99.90
3792;DHT22;1911;53.768;11.474;2023-03-23T05:07:11;9.30;99.90
3792;DHT22;1911;53.768;11.474;2023-03-23T05:09:37;9.30;99.90
3792;DHT22;1911;53.768;11.474;2023-03-23T05:12:09;9.10;99.90
3792;DHT22;1911;53.768;11.474;2023-03-23T05:14:35;8.90;99.90
3792;DHT22;1911;53.768;11.474;2023-03-23T05:17:05;8.90;99.90
3792;DHT22;1911;53.768;11.474;2023-03-23T05:19:31;8.90;99.90
3792;DHT22;1911;53.768;11.474;2023-03-23T05:21:58;8.90;99.90
3792;DHT22;1911;53.768;11.474;2023-03-23T05:24:29;8.80;99.90
3792;DHT22;1911;53.768;11.474;2023-03-23T05:26:57;8.90;99.90
3792;DHT22;1911;53.768;11.474;2023-03-23T05:29:22;8.90;99.90
3792;DHT22;1911;53.768;11.474;2023-03-23T05:31:49;8.90;99.90
3792;DHT22;1911;53.768;11.474;2023-03-23T05:34:14;8.90;99.90
3792;DHT22;1911;53.768;11.474;2023-03-23T05:36:42;9.00;99.90
3792;DHT22;1911;53.768;11.474;2023-03-23T05:39:10;9.10;99.90
3792;DHT22;1911;53.768;11.474;2023-03-23T05:41:36;9.20;99.90
3792;DHT22;1911;53.768;11.474;2023-03-23T05:44:01;9.30;99.90
3792;DHT22;1911;53.768;11.474;2023-03-23T05:46:27;9.30;99.90
3792;DHT22;1911;53.768;11.474;2023-03-23T05:48:53;9.30;99.90
3792;DHT22;1911;53.768;11.474;2023-03-23T05:51:19;9.30;99.90
3792;DHT22;1911;53.768;11.474;2023-03-23T05:53:45;9.40;99.90
3792;DHT22;1911;53.768;11.474;2023-03-23T05:56:11;9.40;99.90
3792;DHT22;1911;53.768;11.474;2023-03-23T05:58:37;9.30;99.90
3792;DHT22;1911;53.768;11.474;2023-03-23T06:01:06;9.40;99.90
3792;DHT22;1911;53.768;11.474;2023-03-23T06:03:32;9.50;99.90
3792;DHT22;1911;53.768;11.474;2023-03-23T06:05:58;9.50;99.90
3792;DHT22;1911;53.768;11.474;2023-03-23T06:08:24;9.40;99.90
3792;DHT22;1911;53.768;11.474;2023-03-23T06:10:49;9.40;99.90
3792;DHT22;1911;53.768;11.474;2023-03-23T06:13:16;9.50;99.90
3792;DHT22;1911;53.768;11.474;2023-03-23T06:15:41;9.40;99.90
3792;DHT22;1911;53.768;11.474;2023-03-23T06:18:07;9.40;99.90
3792;DHT22;1911;53.768;11.474;2023-03-23T06:20:33;9.40;99.90
3792;DHT22;1911;53.768;11.474;2023-03-23T06:23:00;9.40;99.90
3792;DHT22;1911;53.768;11.474;2023-03-23T06:25:26;9.50;99.90
3792;DHT22;1911;53.768;11.474;2023-03-23T06:27:52;9.50;99.90
3792;DHT22;1911;53.768;11.474;2023-03-23T06:30:18;9.50;99.90
3792;DHT22;1911;53.768;11.474;2023-03-23T06:32:44;9.50;99.90
3792;DHT22;1911;53.768;11.474;2023-03-23T06:35:13;9.40;99.90
3792;DHT22;1911;53.768;11.474;2023-03-23T06:37:39;9.40;99.90
3792;DHT22;1911;53.768;11.474;2023-03-23T06:40:05;9.30;99.90
3792;DHT22;1911;53.768;11.474;2023-03-23T06:42:32;9.30;99.90
3792;DHT22;1911;53.768;11.474;2023-03-23T06:44:58;9.30;99.90
3792;DHT22;1911;53.768;11.474;2023-03-23T06:47:26;9.40;99.90
3792;DHT22;1911;53.768;11.474;2023-03-23T06:49:52;9.40;99.90
3792;DHT22;1911;53.768;11.474;2023-03-23T06:52:18;9.40;99.90
3792;DHT22;1911;53.768;11.474;2023-03-23T06:54:43;9.40;99.90
3792;DHT22;1911;53.768;11.474;2023-03-23T06:57:09;9.50;99.90
3792;DHT22;1911;53.768;11.474;2023-03-23T06:59:35;9.50;99.90
3792;DHT22;1911;53.768;11.474;2023-03-23T07:02:01;9.50;99.90
3792;DHT22;1911;53.768;11.474;2023-03-23T07:04:27;9.40;99.90
3792;DHT22;1911;53.768;11.474;2023-03-23T07:06:52;9.50;99.90
3792;DHT22;1911;53.768;11.474;2023-03-23T07:09:18;9.50;99.90
3792;DHT22;1911;53.768;11.474;2023-03-23T07:11:43;9.60;99.90
3792;DHT22;1911;53.768;11.474;2023-03-23T07:14:09;9.60;99.90
3792;DHT22;1911;53.768;11.474;2023-03-23T07:16:35;9.60;99.90
3792;DHT22;1911;53.768;11.474;2023-03-23T07:19:01;9.60;99.90
3792;DHT22;1911;53.768;11.474;2023-03-23T07:21:26;9.60;99.90
3792;DHT22;1911;53.768;11.474;2023-03-23T07:23:52;9.60;99.90
3792;DHT22;1911;53.768;11.474;2023-03-23T07:26:17;9.60;99.90
3792;DHT22;1911;53.768;11.474;2023-03-23T07:28:43;9.60;99.90
3792;DHT22;1911;53.768;11.474;2023-03-23T07:31:11;9.60;99.90
3792;DHT22;1911;53.768;11.474;2023-03-23T07:33:36;9.70;99.90
3792;DHT22;1911;53.768;11.474;2023-03-23T07:36:03;9.90;99.90
3792;DHT22;1911;53.768;11.474;2023-03-23T07:38:29;10.00;99.90
3792;DHT22;1911;53.768;11.474;2023-03-23T07:40:55;10.10;99.90
3792;DHT22;1911;53.768;11.474;2023-03-23T07:43:22;10.30;99.90
3792;DHT22;1911;53.768;11.474;2023-03-23T07:45:48;10.40;99.90
3792;DHT22;1911;53.768;11.474;2023-03-23T07:48:13;10.50;99.90
3792;DHT22;1911;53.768;11.474;2023-03-23T07:50:39;10.40;99.90
3792;DHT22;1911;53.768;11.474;2023-03-23T07:53:05;10.40;99.90
3792;DHT22;1911;53.768;11.474;2023-03-23T07:55:31;10.50;99.90
3792;DHT22;1911;53.768;11.474;2023-03-23T07:57:57;10.50;99.90
3792;DHT22;1911;53.768;11.474;2023-03-23T08:00:23;10.50;99.90
3792;DHT22;1911;53.768;11.474;2023-03-23T08:02:52;10.30;99.90
3792;DHT22;1911;53.768;11.474;2023-03-23T08:05:18;10.30;99.90
3792;DHT22;1911;53.768;11.474;2023-03-23T08:07:46;10.20;99.90
3792;DHT22;1911;53.768;11.474;2023-03-23T08:10:13;10.10;99.90
3792;DHT22;1911;53.768;11.474;2023-03-23T08:12:41;10.20;99.90
3792;DHT22;1911;53.768;11.474;2023-03-23T08:15:08;10.20;99.90
3792;DHT22;1911;53.768;11.474;2023-03-23T08:17:35;10.20;99.90
3792;DHT22;1911;53.768;11.474;2023-03-23T08:20:02;10.30;99.90
3792;DHT22;1911;53.768;11.474;2023-03-23T08:22:34;10.40;99.90
3792;DHT22;1911;53.768;11.474;2023-03-23T08:25:02;10.40;99.90
3792;DHT22;1911;53.768;11.474;2023-03-23T08:27:28;10.50;99.90
3792;DHT22;1911;53.768;11.474;2023-03-23T08:29:54;10.90;99.90
3792;DHT22;1911;53.768;11.474;2023-03-23T08:32:20;11.10;99.90
3792;DHT22;1911;53.768;11.474;2023-03-23T08:34:45;11.60;99.90
3792;DHT22;1911;53.768;11.474;2023-03-23T08:37:11;11.60;99.90
3792;DHT22;1911;53.768;11.474;2023-03-23T08:39:37;11.70;99.90
3792;DHT22;1911;53.768;11.474;2023-03-23T08:42:03;11.90;99.90
3792;DHT22;1911;53.768;11.474;2023-03-23T08:44:29;11.90;99.90
3792;DHT22;1911;53.768;11.474;2023-03-23T08:46:54;11.70;99.90
3792;DHT22;1911;53.768;11.474;2023-03-23T08:49:23;12.00;99.90
3792;DHT22;1911;53.768;11.474;2023-03-23T08:51:49;12.10;99.90
3792;DHT22;1911;53.768;11.474;2023-03-23T08:54:14;12.40;99.90
3792;DHT22;1911;53.768;11.474;2023-03-23T08:56:41;12.40;99.90
3792;DHT22;1911;53.768;11.474;2023-03-23T08:59:07;12.30;99.90
3792;DHT22;1911;53.768;11.474;2023-03-23T09:01:33;12.20;99.90
3792;DHT22;1911;53.768;11.474;2023-03-23T09:03:58;11.80;99.90
3792;DHT22;1911;53.768;11.474;2023-03-23T09:06:25;11.40;99.90
3792;DHT22;1911;53.768;11.474;2023-03-23T09:08:51;11.30;99.90
3792;DHT22;1911;53.768;11.474;2023-03-23T09:11:18;11.40;99.90
3792;DHT22;1911;53.768;11.474;2023-03-23T09:13:44;11.40;99.90
3792;DHT22;1911;53.768;11.474;2023-03-23T09:16:09;11.20;99.90
3792;DHT22;1911;53.768;11.474;2023-03-23T09:18:35;11.20;99.90
3792;DHT22;1911;53.768;11.474;2023-03-23T09:21:02;11.30;99.90
3792;DHT22;1911;53.768;11.474;2023-03-23T09:23:28;11.50;99.90
3792;DHT22;1911;53.768;11.474;2023-03-23T09:25:54;11.70;99.90
3792;DHT22;1911;53.768;11.474;2023-03-23T09:28:20;11.90;99.90
3792;DHT22;1911;53.768;11.474;2023-03-23T09:30:46;11.90;99.90
3792;DHT22;1911;53.768;11.474;2023-03-23T09:33:12;11.70;99.90
3792;DHT22;1911;53.768;11.474;2023-03-23T09:35:38;11.60;99.90
3792;DHT22;1911;53.768;11.474;2023-03-23T09:38:07;11.50;99.90
3792;DHT22;1911;53.768;11.474;2023-03-23T09:48:40;11.20;99.90
3792;DHT22;1911;53.768;11.474;2023-03-23T09:54:27;11.10;99.90
3792;DHT22;1911;53.768;11.474;2023-03-23T09:56:55;10.60;99.90
3792;DHT22;1911;53.768;11.474;2023-03-23T09:59:30;10.30;99.90
3792;DHT22;1911;53.768;11.474;2023-03-23T10:02:17;10.20;99.90
3792;DHT22;1911;53.768;11.474;2023-03-23T10:04:49;10.30;99.90
3792;DHT22;1911;53.768;11.474;2023-03-23T10:07:20;10.40;99.90
3792;DHT22;1911;53.768;11.474;2023-03-23T10:09:50;10.50;99.90
3792;DHT22;1911;53.768;11.474;2023-03-23T10:15:34;10.60;99.90
3792;DHT22;1911;53.768;11.474;2023-03-23T10:18:10;10.70;99.90
3792;DHT22;1911;53.768;11.474;2023-03-23T10:20:50;10.90;99.90
3792;DHT22;1911;53.768;11.474;2023-03-23T10:23:41;11.10;99.90
3792;DHT22;1911;53.768;11.474;2023-03-23T10:28:40;11.30;99.90
3792;DHT22;1911;53.768;11.474;2023-03-23T10:31:15;11.60;99.90
3792;DHT22;1911;53.768;11.474;2023-03-23T10:34:08;11.80;99.90
3792;DHT22;1911;53.768;11.474;2023-03-23T10:36:38;11.80;99.90
3792;DHT22;1911;53.768;11.474;2023-03-23T10:39:23;11.90;99.90
3792;DHT22;1911;53.768;11.474;2023-03-23T10:41:51;11.90;99.90
3792;DHT22;1911;53.768;11.474;2023-03-23T10:44:24;11.90;99.90
3792;DHT22;1911;53.768;11.474;2023-03-23T10:46:55;12.00;99.90
3792;DHT22;1911;53.768;11.474;2023-03-23T10:49:36;11.90;99.90
3792;DHT22;1911;53.768;11.474;2023-03-23T10:57:28;12.20;99.90
3792;DHT22;1911;53.768;11.474;2023-03-23T11:00:16;12.30;99.90
3792;DHT22;1911;53.768;11.474;2023-03-23T11:03:07;12.30;99.90
3792;DHT22;1911;53.768;11.474;2023-03-23T11:05:41;12.30;99.90
3792;DHT22;1911;53.768;11.474;2023-03-23T11:08:16;12.30;99.90
3792;DHT22;1911;53.768;11.474;2023-03-23T11:10:58;12.50;99.90
3792;DHT22;1911;53.768;11.474;2023-03-23T11:13:31;12.70;99.90
3792;DHT22;1911;53.768;11.474;2023-03-23T11:15:57;12.80;99.90
3792;DHT22;1911;53.768;11.474;2023-03-23T11:18:34;13.00;99.90
3792;DHT22;1911;53.768;11.474;2023-03-23T11:21:02;13.10;99.90
3792;DHT22;1911;53.768;11.474;2023-03-23T11:23:38;12.90;99.90
3792;DHT22;1911;53.768;11.474;2023-03-23T11:26:36;12.80;99.90
3792;DHT22;1911;53.768;11.474;2023-03-23T11:29:13;12.70;99.90
3792;DHT22;1911;53.768;11.474;2023-03-23T11:31:49;12.90;99.90
3792;DHT22;1911;53.768;11.474;2023-03-23T11:34:23;12.80;99.90
3792;DHT22;1911;53.768;11.474;2023-03-23T11:36:58;12.70;99.90
3792;DHT22;1911;53.768;11.474;2023-03-23T11:39:30;12.60;99.90
3792;DHT22;1911;53.768;11.474;2023-03-23T11:41:59;12.60;99.90
3792;DHT22;1911;53.768;11.474;2023-03-23T11:44:32;12.60;99.90
3792;DHT22;1911;53.768;11.474;2023-03-23T11:47:04;12.60;99.90
3792;DHT22;1911;53.768;11.474;2023-03-23T11:58:15;12.60;99.90
3792;DHT22;1911;53.768;11.474;2023-03-23T12:01:09;12.70;99.90
3792;DHT22;1911;53.768;11.474;2023-03-23T12:03:37;12.60;99.90
3792;DHT22;1911;53.768;11.474;2023-03-23T12:06:10;12.50;99.90
3792;DHT22;1911;53.768;11.474;2023-03-23T12:08:46;12.70;99.90
3792;DHT22;1911;53.768;11.474;2023-03-23T12:11:26;12.80;99.90
3792;DHT22;1911;53.768;11.474;2023-03-23T12:16:57;12.80;99.90
3792;DHT22;1911;53.768;11.474;2023-03-23T12:19:49;12.80;99.90
3792;DHT22;1911;53.768;11.474;2023-03-23T12:30:45;12.80;99.90
3792;DHT22;1911;53.768;11.474;2023-03-23T12:36:11;12.90;99.90
3792;DHT22;1911;53.768;11.474;2023-03-23T12:42:08;12.80;99.90
3792;DHT22;1911;53.768;11.474;2023-03-23T12:44:47;13.00;99.90
3792;DHT22;1911;53.768;11.474;2023-03-23T12:47:35;13.20;99.90
3792;DHT22;1911;53.768;11.474;2023-03-23T12:50:26;13.30;99.90
3792;DHT22;1911;53.768;11.474;2023-03-23T12:55:39;13.00;99.90
3792;DHT22;1911;53.768;11.474;2023-03-23T12:58:15;12.80;99.90
3792;DHT22;1911;53.768;11.474;2023-03-23T13:03:40;13.10;99.90
3792;DHT22;1911;53.768;11.474;2023-03-23T13:06:15;13.30;99.90
3792;DHT22;1911;53.768;11.474;2023-03-23T13:11:34;13.20;99.90
3792;DHT22;1911;53.768;11.474;2023-03-23T13:19:57;12.80;99.90
3792;DHT22;1911;53.768;11.474;2023-03-23T13:22:39;12.80;99.90
3792;DHT22;1911;53.768;11.474;2023-03-23T13:25:13;12.80;99.90
3792;DHT22;1911;53.768;11.474;2023-03-23T13:27:39;12.80;99.90
3792;DHT22;1911;53.768;11.474;2023-03-23T13:30:18;12.70;99.90
3792;DHT22;1911;53.768;11.474;2023-03-23T13:32:48;12.50;99.90
3792;DHT22;1911;53.768;11.474;2023-03-23T13:35:17;12.30;99.90
3792;DHT22;1911;53.768;11.474;2023-03-23T13:37:48;12.30;99.90
3792;DHT22;1911;53.768;11.474;2023-03-23T13:40:42;12.10;99.90
3792;DHT22;1911;53.768;11.474;2023-03-23T13:43:08;12.00;99.90
3792;DHT22;1911;53.768;11.474;2023-03-23T13:45:45;11.90;99.90
3792;DHT22;1911;53.768;11.474;2023-03-23T13:51:03;11.90;99.90
3792;DHT22;1911;53.768;11.474;2023-03-23T13:53:47;11.90;99.90
3792;DHT22;1911;53.768;11.474;2023-03-23T13:56:25;12.00;99.90
3792;DHT22;1911;53.768;11.474;2023-03-23T13:59:15;12.00;99.90
3792;DHT22;1911;53.768;11.474;2023-03-23T14:01:42;11.90;99.90
3792;DHT22;1911;53.768;11.474;2023-03-23T14:04:18;11.90;99.90
3792;DHT22;1911;53.768;11.474;2023-03-23T14:06:48;11.80;99.90
3792;DHT22;1911;53.768;11.474;2023-03-23T14:12:23;11.90;99.90
3792;DHT22;1911;53.768;11.474;2023-03-23T14:14:56;12.00;99.90
3792;DHT22;1911;53.768;11.474;2023-03-23T14:17:28;12.10;99.90
3792;DHT22;1911;53.768;11.474;2023-03-23T14:19:57;12.10;99.90
3792;DHT22;1911;53.768;11.474;2023-03-23T14:22:32;12.10;99.90
3792;DHT22;1911;53.768;11.474;2023-03-23T14:25:18;12.10;99.90
3792;DHT22;1911;53.768;11.474;2023-03-23T14:27:46;12.00;99.90
3792;DHT22;1911;53.768;11.474;2023-03-23T14:30:23;11.80;99.90
3792;DHT22;1911;53.768;11.474;2023-03-23T14:32:51;11.70;99.90
3792;DHT22;1911;53.768;11.474;2023-03-23T14:35:27;11.80;99.90
3792;DHT22;1911;53.768;11.474;2023-03-23T14:37:55;11.90;99.90
3792;DHT22;1911;53.768;11.474;2023-03-23T14:40:22;11.90;99.90
3792;DHT22;1911;53.768;11.474;2023-03-23T14:42:50;11.80;99.90
3792;DHT22;1911;53.768;11.474;2023-03-23T14:45:18;11.80;99.90
3792;DHT22;1911;53.768;11.474;2023-03-23T14:47:54;12.00;99.90
3792;DHT22;1911;53.768;11.474;2023-03-23T14:50:38;12.20;99.90
3792;DHT22;1911;53.768;11.474;2023-03-23T14:53:24;12.30;99.90
3792;DHT22;1911;53.768;11.474;2023-03-23T14:55:54;12.30;99.90
3792;DHT22;1911;53.768;11.474;2023-03-23T14:58:22;12.40;99.90
3792;DHT22;1911;53.768;11.474;2023-03-23T15:01:07;12.40;99.90
3792;DHT22;1911;53.768;11.474;2023-03-23T15:03:38;12.40;99.90
3792;DHT22;1911;53.768;11.474;2023-03-23T15:06:12;12.50;99.90
3792;DHT22;1911;53.768;11.474;2023-03-23T15:08:39;12.50;99.90
3792;DHT22;1911;53.768;11.474;2023-03-23T15:26:44;11.80;99.90
3792;DHT22;1911;53.768;11.474;2023-03-23T15:31:46;10.00;99.90
3792;DHT22;1911;53.768;11.474;2023-03-23T15:34:29;9.60;99.90
3792;DHT22;1911;53.768;11.474;2023-03-23T15:37:00;9.30;99.90
3792;DHT22;1911;53.768;11.474;2023-03-23T15:39:27;9.20;99.90
3792;DHT22;1911;53.768;11.474;2023-03-23T15:41:54;9.00;99.90
3792;DHT22;1911;53.768;11.474;2023-03-23T15:44:31;8.90;99.90
3792;DHT22;1911;53.768;11.474;2023-03-23T15:47:16;8.80;99.90
3792;DHT22;1911;53.768;11.474;2023-03-23T15:49:46;8.70;99.90
3792;DHT22;1911;53.768;11.474;2023-03-23T15:52:14;8.70;99.90
3792;DHT22;1911;53.768;11.474;2023-03-23T15:54:47;8.80;99.90
3792;DHT22;1911;53.768;11.474;2023-03-23T15:57:13;8.70;99.90
3792;DHT22;1911;53.768;11.474;2023-03-23T15:59:38;8.80;99.90
3792;DHT22;1911;53.768;11.474;2023-03-23T16:02:04;8.90;99.90
3792;DHT22;1911;53.768;11.474;2023-03-23T16:04:30;9.00;99.90
3792;DHT22;1911;53.768;11.474;2023-03-23T16:06:57;9.30;99.90
3792;DHT22;1911;53.768;11.474;2023-03-23T16:09:23;9.40;99.90
3792;DHT22;1911;53.768;11.474;2023-03-23T16:11:49;9.40;99.90
3792;DHT22;1911;53.768;11.474;2023-03-23T16:14:15;9.40;99.90
3792;DHT22;1911;53.768;11.474;2023-03-23T16:16:46;9.30;99.90
3792;DHT22;1911;53.768;11.474;2023-03-23T16:19:13;9.30;99.90
3792;DHT22;1911;53.768;11.474;2023-03-23T16:21:39;9.20;99.90
3792;DHT22;1911;53.768;11.474;2023-03-23T16:24:06;9.20;99.90
3792;DHT22;1911;53.768;11.474;2023-03-23T16:26:32;9.10;99.90
3792;DHT22;1911;53.768;11.474;2023-03-23T16:28:58;9.10;99.90
3792;DHT22;1911;53.768;11.474;2023-03-23T16:31:24;9.10;99.90
3792;DHT22;1911;53.768;11.474;2023-03-23T16:33:49;9.10;99.90
3792;DHT22;1911;53.768;11.474;2023-03-23T16:36:15;9.20;99.90
3792;DHT22;1911;53.768;11.474;2023-03-23T16:38:41;9.20;99.90
3792;DHT22;1911;53.768;11.474;2023-03-23T16:41:07;9.30;99.90
3792;DHT22;1911;53.768;11.474;2023-03-23T16:43:34;9.30;99.90
3792;DHT22;1911;53.768;11.474;2023-03-23T16:46:00;9.30;99.90
3792;DHT22;1911;53.768;11.474;2023-03-23T16:48:25;9.30;99.90
3792;DHT22;1911;53.768;11.474;2023-03-23T16:50:52;9.20;99.90
3792;DHT22;1911;53.768;11.474;2023-03-23T16:53:19;9.10;99.90
3792;DHT22;1911;53.768;11.474;2023-03-23T16:55:46;9.00;99.90
3792;DHT22;1911;53.768;11.474;2023-03-23T16:58:15;9.00;99.90
3792;DHT22;1911;53.768;11.474;2023-03-23T17:00:43;9.00;99.90
3792;DHT22;1911;53.768;11.474;2023-03-23T17:03:09;9.10;99.90
3792;DHT22;1911;53.768;11.474;2023-03-23T17:05:36;9.20;99.90
3792;DHT22;1911;53.768;11.474;2023-03-23T17:08:02;9.10;99.90
3792;DHT22;1911;53.768;11.474;2023-03-23T17:10:29;9.10;99.90
3792;DHT22;1911;53.768;11.474;2023-03-23T17:12:55;8.90;99.90
3792;DHT22;1911;53.768;11.474;2023-03-23T17:15:21;8.70;99.90
3792;DHT22;1911;53.768;11.474;2023-03-23T17:18:11;8.70;99.90
3792;DHT22;1911;53.768;11.474;2023-03-23T17:20:51;8.50;99.90
3792;DHT22;1911;53.768;11.474;2023-03-23T17:23:17;8.60;99.90
3792;DHT22;1911;53.768;11.474;2023-03-23T17:25:46;8.50;99.90
3792;DHT22;1911;53.768;11.474;2023-03-23T17:28:12;8.50;99.90
3792;DHT22;1911;53.768;11.474;2023-03-23T17:30:46;8.40;99.90
3792;DHT22;1911;53.768;11.474;2023-03-23T17:33:11;8.40;99.90
3792;DHT22;1911;53.768;11.474;2023-03-23T17:35:40;8.40;99.90
3792;DHT22;1911;53.768;11.474;2023-03-23T17:38:10;8.30;99.90
3792;DHT22;1911;53.768;11.474;2023-03-23T17:40:36;8.20;99.90
3792;DHT22;1911;53.768;11.474;2023-03-23T18:59:18;8.50;99.90
3792;DHT22;1911;53.768;11.474;2023-03-23T19:19:56;7.80;99.90
3792;DHT22;1911;53.768;11.474;2023-03-23T19:54:36;7.90;99.90
3792;DHT22;1911;53.768;11.474;2023-03-23T20:22:05;7.80;99.90
3792;DHT22;1911;53.768;11.474;2023-03-23T21:04:06;7.60;99.90
3792;DHT22;1911;53.768;11.474;2023-03-23T21:06:33;7.60;99.90
3792;DHT22;1911;53.768;11.474;2023-03-23T21:09:01;7.60;99.90
3792;DHT22;1911;53.768;11.474;2023-03-23T21:11:34;7.60;99.90
3792;DHT22;1911;53.768;11.474;2023-03-23T21:14:07;7.60;99.90
3792;DHT22;1911;53.768;11.474;2023-03-23T21:16:54;7.60;99.90
3792;DHT22;1911;53.768;11.474;2023-03-23T21:19:22;7.60;99.90